Time;durP1;ratioP1;P1;durP2;ratioP2;P2;SDS_P1;SDS_P2;PMS_P1;PMS_P2;Temp;Humidity;BMP_temperature;BMP_pressure;BME280_temperature;BME280_humidity;BME280_pressure;Samples;Min_cycle;Max_cycle;Signal;HPM_P1;HPM_P2
2022/04/15 00:00:36;;;;;;;20.17;12.10;;;;;;;;;;5023797;28;20201;-66
2022/04/15 00:03:02;;;;;;;27.70;12.88;;;;;;;;;;5018440;28;20447;-66
2022/04/15 00:05:37;;;;;;;28.35;13.10;;;;;;;;;;5022001;28;20360;-66
2022/04/15 00:08:04;;;;;;;25.10;13.07;;;;;;;;;;5025664;28;20186;-66
2022/04/15 00:10:29;;;;;;;24.93;13.77;;;;;;;;;;5019962;28;20281;-66
2022/04/15 00:12:56;;;;;;;26.67;13.67;;;;;;;;;;5024166;28;20301;-67
2022/04/15 00:15:22;;;;;;;24.15;13.32;;;;;;;;;;5015533;28;20216;-66
2022/04/15 00:17:47;;;;;;;26.45;14.10;;;;;;;;;;5025318;28;20212;-66
2022/04/15 00:20:13;;;;;;;33.07;14.20;;;;;;;;;;5020085;28;20190;-66
2022/04/15 00:22:39;;;;;;;21.60;13.33;;;;;;;;;;5023999;28;20290;-69
2022/04/15 00:25:06;;;;;;;28.10;14.47;;;;;;;;;;5028703;28;20295;-66
2022/04/15 00:27:31;;;;;;;25.80;13.90;;;;;;;;;;5022033;28;20189;-66
2022/04/15 00:29:56;;;;;;;26.17;14.07;;;;;;;;;;5023370;28;20226;-66
2022/04/15 00:32:22;;;;;;;29.00;15.40;;;;;;;;;;5023774;28;20203;-70
2022/04/15 00:34:47;;;;;;;24.17;13.80;;;;;;;;;;5021030;28;20185;-66
2022/04/15 00:37:13;;;;;;;26.17;14.40;;;;;;;;;;5021110;28;20186;-66
2022/04/15 00:39:45;;;;;;;28.13;14.43;;;;;;;;;;5020901;28;20179;-66
2022/04/15 00:42:10;;;;;;;35.13;13.63;;;;;;;;;;5024103;28;20252;-66
2022/04/15 00:44:36;;;;;;;22.30;13.70;;;;;;;;;;5021138;28;20621;-66
2022/04/15 00:47:01;;;;;;;27.43;13.13;;;;;;;;;;5022619;28;20182;-66
2022/04/15 00:49:26;;;;;;;25.02;13.10;;;;;;;;;;5012767;28;20265;-66
2022/04/15 00:51:53;;;;;;;21.35;11.43;;;;;;;;;;5021936;28;20191;-66
2022/04/15 00:54:20;;;;;;;22.10;12.33;;;;;;;;;;5017899;28;20273;-66
2022/04/15 00:56:49;;;;;;;21.83;12.37;;;;;;;;;;5028222;28;20183;-66
2022/04/15 00:59:16;;;;;;;21.35;11.98;;;;;;;;;;5023173;28;20197;-65
2022/04/15 01:01:43;;;;;;;23.57;12.43;;;;;;;;;;5020728;28;20221;-65
2022/04/15 01:04:10;;;;;;;20.60;11.98;;;;;;;;;;5021554;28;20604;-65
2022/04/15 01:06:37;;;;;;;26.10;12.23;;;;;;;;;;5020309;28;20658;-65
2022/04/15 01:09:03;;;;;;;25.75;11.02;;;;;;;;;;5021010;28;20298;-65
2022/04/15 01:11:32;;;;;;;21.13;11.35;;;;;;;;;;5020470;28;20222;-66
2022/04/15 01:14:00;;;;;;;20.75;11.43;;;;;;;;;;5010346;28;20954;-65
2022/04/15 01:16:28;;;;;;;25.27;11.55;;;;;;;;;;5025945;28;20565;-65
2022/04/15 01:18:53;;;;;;;23.30;11.67;;;;;;;;;;5020522;28;20186;-64
2022/04/15 01:21:23;;;;;;;18.60;11.53;;;;;;;;;;5027243;28;20689;-65
2022/04/15 01:23:50;;;;;;;21.73;11.95;;;;;;;;;;5016533;28;20229;-65
2022/04/15 01:26:17;;;;;;;22.70;11.57;;;;;;;;;;5018653;28;20260;-65
2022/04/15 01:28:43;;;;;;;23.80;11.63;;;;;;;;;;5023187;28;20311;-65
2022/04/15 01:31:08;;;;;;;21.30;12.20;;;;;;;;;;5024370;28;20252;-65
2022/04/15 01:33:33;;;;;;;20.37;12.00;;;;;;;;;;5019266;28;20546;-65
2022/04/15 01:35:59;;;;;;;28.10;12.93;;;;;;;;;;5018788;28;20182;-65
2022/04/15 01:38:24;;;;;;;21.63;12.10;;;;;;;;;;5016855;28;20269;-65
2022/04/15 01:40:49;;;;;;;24.73;12.70;;;;;;;;;;5019070;28;20638;-65
2022/04/15 01:43:15;;;;;;;21.97;12.27;;;;;;;;;;5011509;28;20737;-65
2022/04/15 01:45:40;;;;;;;26.77;13.80;;;;;;;;;;5018353;28;20190;-65
2022/04/15 01:48:06;;;;;;;25.27;12.07;;;;;;;;;;5025961;28;20536;-66
2022/04/15 01:50:32;;;;;;;28.37;12.97;;;;;;;;;;5011160;28;20194;-66
2022/04/15 01:52:58;;;;;;;27.40;12.93;;;;;;;;;;5023864;28;20191;-66
2022/04/15 01:55:23;;;;;;;26.60;12.77;;;;;;;;;;5012877;28;20241;-66
2022/04/15 01:57:49;;;;;;;23.37;12.20;;;;;;;;;;5023099;28;20190;-66
2022/04/15 02:00:14;;;;;;;24.77;12.83;;;;;;;;;;5025174;28;20190;-66
2022/04/15 02:02:40;;;;;;;18.87;11.97;;;;;;;;;;5020358;28;20748;-65
2022/04/15 02:05:06;;;;;;;22.57;13.30;;;;;;;;;;5025578;28;20664;-66
2022/04/15 02:07:31;;;;;;;28.53;13.07;;;;;;;;;;5015990;28;20175;-66
2022/04/15 02:09:56;;;;;;;22.57;12.47;;;;;;;;;;5026252;28;20285;-65
2022/04/15 02:12:22;;;;;;;27.43;14.63;;;;;;;;;;5025964;28;20284;-65
2022/04/15 02:14:47;;;;;;;29.17;12.67;;;;;;;;;;5025239;28;20231;-65
2022/04/15 02:17:13;;;;;;;28.60;13.67;;;;;;;;;;5030209;28;20229;-65
2022/04/15 02:19:38;;;;;;;28.67;12.77;;;;;;;;;;5028490;28;20178;-65
2022/04/15 02:22:03;;;;;;;21.97;13.17;;;;;;;;;;5027241;28;20210;-65
2022/04/15 02:24:29;;;;;;;28.23;13.13;;;;;;;;;;5025959;28;20197;-65
2022/04/15 02:26:54;;;;;;;32.93;14.83;;;;;;;;;;5024020;28;20190;-66
2022/04/15 02:29:19;;;;;;;29.00;13.60;;;;;;;;;;5027697;28;20229;-66
2022/04/15 02:31:45;;;;;;;26.67;13.80;;;;;;;;;;5028376;28;20208;-66
2022/04/15 02:34:10;;;;;;;21.80;12.70;;;;;;;;;;5025186;28;20190;-66
2022/04/15 02:36:35;;;;;;;21.80;13.27;;;;;;;;;;5021798;28;20182;-66
2022/04/15 02:39:01;;;;;;;27.70;13.67;;;;;;;;;;5018557;28;20541;-66
2022/04/15 02:41:26;;;;;;;24.80;13.20;;;;;;;;;;5019037;28;20211;-64
2022/04/15 02:43:52;;;;;;;23.40;12.83;;;;;;;;;;5026245;28;20190;-65
2022/04/15 02:46:19;;;;;;;26.73;13.53;;;;;;;;;;5019092;28;20186;-65
2022/04/15 02:48:44;;;;;;;21.53;12.87;;;;;;;;;;5014429;28;20635;-64
2022/04/15 02:51:09;;;;;;;30.00;13.23;;;;;;;;;;5025894;28;20193;-65
2022/04/15 02:53:35;;;;;;;23.63;13.27;;;;;;;;;;5023215;28;20535;-65
2022/04/15 02:56:00;;;;;;;24.93;13.43;;;;;;;;;;5028930;28;20178;-65
2022/04/15 02:58:25;;;;;;;25.87;12.90;;;;;;;;;;5027557;28;20197;-65
2022/04/15 03:00:51;;;;;;;26.67;13.47;;;;;;;;;;5025929;28;20190;-66
2022/04/15 03:03:17;;;;;;;27.67;13.27;;;;;;;;;;5026689;28;20218;-65
2022/04/15 03:05:42;;;;;;;26.37;13.87;;;;;;;;;;5027808;28;20270;-66
2022/04/15 03:08:08;;;;;;;31.10;13.97;;;;;;;;;;5027727;28;20243;-66
2022/04/15 03:10:34;;;;;;;28.90;14.30;;;;;;;;;;5022942;28;20217;-66
2022/04/15 03:12:59;;;;;;;23.73;13.50;;;;;;;;;;5025880;28;20587;-66
2022/04/15 03:15:25;;;;;;;28.83;14.47;;;;;;;;;;5026963;28;20226;-66
2022/04/15 03:17:50;;;;;;;23.47;13.37;;;;;;;;;;5022039;28;20560;-66
2022/04/15 03:20:15;;;;;;;24.43;13.83;;;;;;;;;;5029423;28;20190;-66
2022/04/15 03:22:42;;;;;;;29.30;13.20;;;;;;;;;;5024791;28;20214;-66
2022/04/15 03:25:11;;;;;;;21.80;12.83;;;;;;;;;;5018819;28;20187;-66
2022/04/15 03:27:36;;;;;;;30.30;13.33;;;;;;;;;;5025127;28;20615;-66
2022/04/15 03:30:03;;;;;;;25.80;13.83;;;;;;;;;;5023810;28;20187;-66
2022/04/15 03:32:29;;;;;;;25.00;13.03;;;;;;;;;;5027449;28;20205;-66
2022/04/15 03:34:57;;;;;;;24.10;13.27;;;;;;;;;;5020663;28;20182;-66
2022/04/15 03:37:23;;;;;;;22.80;13.20;;;;;;;;;;5024424;28;20304;-66
2022/04/15 03:39:49;;;;;;;25.80;13.13;;;;;;;;;;5027565;28;20291;-66
2022/04/15 03:42:14;;;;;;;29.73;13.47;;;;;;;;;;5027841;28;20576;-66
2022/04/15 03:44:40;;;;;;;25.37;12.70;;;;;;;;;;5016171;28;20198;-66
2022/04/15 03:47:06;;;;;;;23.63;12.73;;;;;;;;;;5027634;28;20182;-66
2022/04/15 03:49:31;;;;;;;25.23;13.23;;;;;;;;;;5017669;28;20185;-66
2022/04/15 03:51:57;;;;;;;27.07;14.50;;;;;;;;;;5025467;28;20174;-66
2022/04/15 03:54:22;;;;;;;26.17;13.03;;;;;;;;;;5024264;28;20194;-66
2022/04/15 03:56:48;;;;;;;22.33;12.53;;;;;;;;;;5023207;28;20194;-66
2022/04/15 03:59:14;;;;;;;26.83;12.77;;;;;;;;;;5028320;28;20261;-66
2022/04/15 04:01:39;;;;;;;30.50;13.40;;;;;;;;;;5016203;28;20208;-66
2022/04/15 04:04:05;;;;;;;26.13;12.37;;;;;;;;;;5025876;28;20265;-66
2022/04/15 04:06:30;;;;;;;26.47;13.10;;;;;;;;;;5028883;28;20748;-66
2022/04/15 04:08:55;;;;;;;23.40;12.67;;;;;;;;;;5026946;28;20189;-66
2022/04/15 04:11:21;;;;;;;24.10;12.07;;;;;;;;;;5023762;28;20313;-66
2022/04/15 04:13:47;;;;;;;27.53;13.17;;;;;;;;;;5026485;28;20531;-66
2022/04/15 04:16:12;;;;;;;23.30;12.60;;;;;;;;;;5021796;28;20213;-66
2022/04/15 04:18:41;;;;;;;21.77;12.30;;;;;;;;;;5020826;28;20201;-66
2022/04/15 04:21:07;;;;;;;24.50;11.60;;;;;;;;;;5021271;28;20187;-66
2022/04/15 04:23:32;;;;;;;21.13;11.30;;;;;;;;;;5019609;28;20198;-66
2022/04/15 04:25:58;;;;;;;19.57;11.73;;;;;;;;;;5018236;28;20194;-66
2022/04/15 04:28:23;;;;;;;20.77;11.37;;;;;;;;;;5012321;28;20225;-65
2022/04/15 04:30:48;;;;;;;22.67;11.63;;;;;;;;;;5023115;28;20209;-66
2022/04/15 04:33:14;;;;;;;20.63;11.33;;;;;;;;;;5024724;28;20591;-66
2022/04/15 04:35:39;;;;;;;19.13;10.38;;;;;;;;;;5026356;28;20190;-66
2022/04/15 04:38:06;;;;;;;21.23;10.23;;;;;;;;;;5026086;28;20718;-66
2022/04/15 04:40:33;;;;;;;17.67;10.43;;;;;;;;;;5018746;28;20556;-66
2022/04/15 04:42:59;;;;;;;18.77;10.80;;;;;;;;;;5023797;28;20214;-66
2022/04/15 04:45:25;;;;;;;23.53;11.17;;;;;;;;;;5015843;28;20200;-66
2022/04/15 04:47:50;;;;;;;21.23;11.43;;;;;;;;;;5016410;28;20193;-66
2022/04/15 04:50:16;;;;;;;19.77;11.33;;;;;;;;;;5023593;28;20276;-66
2022/04/15 04:52:41;;;;;;;18.03;11.07;;;;;;;;;;5023048;28;20197;-66
2022/04/15 04:55:08;;;;;;;20.00;11.13;;;;;;;;;;5019853;28;20191;-66
2022/04/15 04:57:33;;;;;;;20.33;10.53;;;;;;;;;;5020653;28;20646;-66
2022/04/15 04:59:59;;;;;;;20.93;10.80;;;;;;;;;;5016697;28;20198;-66
2022/04/15 05:02:24;;;;;;;18.23;10.27;;;;;;;;;;5025811;28;20598;-66
2022/04/15 05:04:49;;;;;;;19.23;10.77;;;;;;;;;;5016577;28;20202;-68
2022/04/15 05:07:15;;;;;;;17.00;10.23;;;;;;;;;;5024569;28;20704;-66
2022/04/15 05:09:42;;;;;;;16.60;9.83;;;;;;;;;;5027895;28;20605;-66
2022/04/15 05:12:10;;;;;;;15.87;10.03;;;;;;;;;;5020236;28;20222;-66
2022/04/15 05:14:35;;;;;;;18.77;10.73;;;;;;;;;;5028641;28;20547;-66
2022/04/15 05:17:00;;;;;;;20.27;11.40;;;;;;;;;;5022407;28;20224;-66
2022/04/15 05:19:26;;;;;;;17.07;9.93;;;;;;;;;;5025441;28;20273;-66
2022/04/15 05:21:52;;;;;;;18.53;10.50;;;;;;;;;;5019522;28;20207;-66
2022/04/15 05:24:18;;;;;;;18.37;10.30;;;;;;;;;;5021999;28;20192;-66
2022/04/15 05:26:43;;;;;;;17.77;10.13;;;;;;;;;;5026442;28;20630;-66
2022/04/15 05:29:09;;;;;;;14.83;10.33;;;;;;;;;;5033000;28;20232;-66
2022/04/15 05:31:34;;;;;;;18.93;9.77;;;;;;;;;;5021129;28;20305;-66
2022/04/15 05:34:00;;;;;;;18.50;9.83;;;;;;;;;;5030994;28;20186;-66
2022/04/15 05:36:26;;;;;;;18.10;9.80;;;;;;;;;;5031950;28;20189;-66
2022/04/15 05:38:51;;;;;;;15.10;9.07;;;;;;;;;;5030323;28;20216;-66
2022/04/15 05:41:16;;;;;;;16.87;10.13;;;;;;;;;;5027455;28;20316;-66
2022/04/15 05:43:43;;;;;;;18.57;9.63;;;;;;;;;;5032012;28;20479;-66
2022/04/15 05:46:09;;;;;;;20.07;9.40;;;;;;;;;;5026500;28;20341;-66
2022/04/15 05:48:34;;;;;;;14.97;8.83;;;;;;;;;;5031338;28;20631;-66
2022/04/15 05:50:59;;;;;;;15.43;9.40;;;;;;;;;;5029650;28;20197;-66
2022/04/15 05:53:24;;;;;;;15.53;10.07;;;;;;;;;;5029195;28;20178;-66
2022/04/15 05:55:50;;;;;;;20.10;9.93;;;;;;;;;;5023431;28;20190;-66
2022/04/15 05:58:15;;;;;;;15.67;9.47;;;;;;;;;;5032312;28;20185;-66
2022/04/15 06:00:40;;;;;;;21.97;9.97;;;;;;;;;;5030319;28;20178;-66
2022/04/15 06:03:09;;;;;;;18.07;9.73;;;;;;;;;;5027851;28;20244;-66
2022/04/15 06:05:34;;;;;;;16.30;8.90;;;;;;;;;;5028971;28;20206;-66
2022/04/15 06:07:59;;;;;;;17.00;9.10;;;;;;;;;;5030295;28;20681;-66
2022/04/15 06:10:25;;;;;;;14.77;8.70;;;;;;;;;;5032050;28;20196;-66
2022/04/15 06:13:25;;;;;;;14.63;8.27;;;;;;;;;;5026550;28;20309;-66
2022/04/15 06:15:51;;;;;;;17.10;9.07;;;;;;;;;;5029028;28;20191;-69
2022/04/15 06:18:16;;;;;;;17.07;8.23;;;;;;;;;;5029996;28;20376;-66
2022/04/15 06:20:43;;;;;;;16.10;8.60;;;;;;;;;;5032430;28;20273;-67
2022/04/15 06:23:09;;;;;;;15.37;7.83;;;;;;;;;;5030449;28;20237;-66
2022/04/15 06:25:34;;;;;;;14.80;7.67;;;;;;;;;;5031869;28;20178;-66
2022/04/15 06:28:00;;;;;;;13.67;8.03;;;;;;;;;;5032029;28;20661;-67
2022/04/15 06:30:27;;;;;;;11.70;7.43;;;;;;;;;;5030836;28;20272;-67
2022/04/15 06:32:53;;;;;;;12.00;7.50;;;;;;;;;;5030754;28;20185;-67
2022/04/15 06:35:18;;;;;;;13.17;8.17;;;;;;;;;;5032755;28;20269;-67
2022/04/15 06:37:43;;;;;;;12.70;8.10;;;;;;;;;;5030469;28;20265;-66
2022/04/15 06:40:10;;;;;;;14.53;8.40;;;;;;;;;;5028362;28;20178;-66
2022/04/15 06:42:35;;;;;;;14.50;8.32;;;;;;;;;;5027846;28;20574;-67
2022/04/15 06:45:00;;;;;;;11.95;7.70;;;;;;;;;;5028330;28;20253;-67
2022/04/15 06:47:26;;;;;;;13.57;8.13;;;;;;;;;;5027869;28;20190;-67
2022/04/15 06:49:51;;;;;;;16.80;8.38;;;;;;;;;;5028953;28;20193;-67
2022/04/15 06:52:18;;;;;;;13.05;8.35;;;;;;;;;;5025772;28;20248;-67
2022/04/15 06:54:43;;;;;;;13.70;8.52;;;;;;;;;;5029559;28;20182;-67
2022/04/15 06:57:09;;;;;;;14.57;8.25;;;;;;;;;;5022998;28;20190;-67
2022/04/15 06:59:35;;;;;;;11.70;7.13;;;;;;;;;;4332184;28;10000712;-67
2022/04/15 07:02:01;;;;;;;12.68;7.45;;;;;;;;;;5023925;28;20198;-67
2022/04/15 07:04:27;;;;;;;15.65;8.23;;;;;;;;;;5027915;28;20201;-67
2022/04/15 07:06:54;;;;;;;10.13;7.57;;;;;;;;;;5026576;28;20539;-66
2022/04/15 07:09:19;;;;;;;15.40;7.68;;;;;;;;;;5028086;28;20595;-66
2022/04/15 07:11:44;;;;;;;15.67;8.50;;;;;;;;;;5022883;28;20233;-67
2022/04/15 07:14:10;;;;;;;11.80;7.32;;;;;;;;;;5028715;28;20194;-67
2022/04/15 07:16:35;;;;;;;12.43;7.93;;;;;;;;;;5028053;28;20538;-67
2022/04/15 07:19:04;;;;;;;13.27;7.28;;;;;;;;;;5028123;28;20277;-67
2022/04/15 07:21:30;;;;;;;14.32;7.72;;;;;;;;;;5023920;28;20205;-67
2022/04/15 07:23:56;;;;;;;13.75;7.43;;;;;;;;;;5028105;28;20182;-67
2022/04/15 07:26:21;;;;;;;15.75;7.97;;;;;;;;;;5024984;28;20204;-67
2022/04/15 07:28:46;;;;;;;10.15;7.00;;;;;;;;;;5026072;28;20193;-67
2022/04/15 07:31:12;;;;;;;13.32;7.70;;;;;;;;;;5024980;28;20205;-67
2022/04/15 07:33:37;;;;;;;12.93;7.70;;;;;;;;;;5026055;28;20186;-67
2022/04/15 07:36:31;;;;;;;19.15;8.10;;;;;;;;;;5022200;28;20377;-67
2022/04/15 07:38:48;;;;;;;15.80;8.50;;;;;;;;;;5026914;28;20190;-67
2022/04/15 07:41:13;;;;;;;12.50;8.60;;;;;;;;;;5024657;28;20183;-67
2022/04/15 07:43:38;;;;;;;12.75;7.85;;;;;;;;;;5027776;28;20178;-67
2022/04/15 07:46:04;;;;;;;13.65;8.40;;;;;;;;;;5027438;28;20243;-67
2022/04/15 07:48:29;;;;;;;12.93;7.63;;;;;;;;;;5027522;28;20209;-67
2022/04/15 07:50:56;;;;;;;12.53;7.40;;;;;;;;;;5025524;28;20182;-65
2022/04/15 07:53:21;;;;;;;9.63;7.40;;;;;;;;;;5026803;28;20710;-66
2022/04/15 07:55:47;;;;;;;11.67;7.30;;;;;;;;;;5026823;28;20454;-66
2022/04/15 07:58:12;;;;;;;13.27;7.57;;;;;;;;;;5028318;28;20186;-67
2022/04/15 08:00:39;;;;;;;11.77;6.83;;;;;;;;;;5027250;28;20507;-66
2022/04/15 08:03:04;;;;;;;14.87;7.10;;;;;;;;;;5023162;28;20210;-66
2022/04/15 08:05:30;;;;;;;9.23;6.55;;;;;;;;;;5023587;28;20181;-66
2022/04/15 08:07:56;;;;;;;10.55;6.38;;;;;;;;;;5026324;28;20248;-66
2022/04/15 08:10:23;;;;;;;13.10;6.30;;;;;;;;;;5022788;28;20194;-66
2022/04/15 08:12:49;;;;;;;10.23;6.20;;;;;;;;;;5021755;28;20631;-66
2022/04/15 08:15:14;;;;;;;10.63;5.65;;;;;;;;;;5028518;28;20229;-66
2022/04/15 08:17:39;;;;;;;8.85;5.72;;;;;;;;;;5023460;28;20241;-67
2022/04/15 08:20:06;;;;;;;8.30;5.53;;;;;;;;;;5027226;28;20261;-66
2022/04/15 08:22:35;;;;;;;9.07;5.22;;;;;;;;;;5024438;28;20256;-67
2022/04/15 08:25:01;;;;;;;7.00;4.80;;;;;;;;;;5020842;28;20638;-66
2022/04/15 08:27:26;;;;;;;6.95;4.72;;;;;;;;;;5025816;28;20593;-66
2022/04/15 08:29:52;;;;;;;7.38;5.38;;;;;;;;;;5022798;28;20174;-67
2022/04/15 08:32:19;;;;;;;8.68;5.75;;;;;;;;;;5021617;28;20220;-67
2022/04/15 08:34:44;;;;;;;8.50;5.03;;;;;;;;;;5024568;28;20170;-66
2022/04/15 08:37:10;;;;;;;8.00;5.68;;;;;;;;;;5024396;28;20532;-69
2022/04/15 08:39:36;;;;;;;7.47;4.85;;;;;;;;;;5023859;28;20170;-66
2022/04/15 08:42:01;;;;;;;7.88;5.57;;;;;;;;;;5025073;28;20209;-67
2022/04/15 08:44:29;;;;;;;6.28;4.63;;;;;;;;;;5025296;28;20174;-66
2022/04/15 08:46:57;;;;;;;5.75;3.83;;;;;;;;;;5024945;28;20269;-66
2022/04/15 08:49:24;;;;;;;5.50;4.15;;;;;;;;;;5025871;28;20205;-67
2022/04/15 08:51:50;;;;;;;6.53;4.47;;;;;;;;;;5021024;28;20637;-66
2022/04/15 08:54:17;;;;;;;7.43;4.35;;;;;;;;;;5027536;28;20190;-66
2022/04/15 08:56:43;;;;;;;5.03;4.03;;;;;;;;;;5024445;28;20197;-66
2022/04/15 08:59:09;;;;;;;5.18;3.65;;;;;;;;;;5027833;28;20182;-67
2022/04/15 09:01:34;;;;;;;5.80;4.10;;;;;;;;;;5025408;28;20206;-67
2022/04/15 09:04:00;;;;;;;5.43;3.72;;;;;;;;;;5026640;28;20210;-66
2022/04/15 09:06:35;;;;;;;6.30;3.75;;;;;;;;;;5027066;28;20669;-67
2022/04/15 09:09:08;;;;;;;6.72;4.13;;;;;;;;;;5027358;28;20653;-67
2022/04/15 09:11:35;;;;;;;6.93;4.18;;;;;;;;;;5022577;28;20225;-66
2022/04/15 09:14:03;;;;;;;6.72;3.92;;;;;;;;;;5026118;28;20239;-66
2022/04/15 09:16:30;;;;;;;5.75;3.78;;;;;;;;;;5027020;28;20166;-66
2022/04/15 09:18:56;;;;;;;6.00;4.00;;;;;;;;;;5027409;28;20625;-67
2022/04/15 09:21:28;;;;;;;5.90;4.60;;;;;;;;;;5015401;28;20174;-67
2022/04/15 09:23:55;;;;;;;8.05;4.32;;;;;;;;;;5026166;28;20198;-67
2022/04/15 09:26:22;;;;;;;6.75;4.80;;;;;;;;;;5026069;28;20484;-67
2022/04/15 09:28:48;;;;;;;6.65;4.82;;;;;;;;;;5023443;28;20186;-67
2022/04/15 09:31:15;;;;;;;8.48;4.50;;;;;;;;;;5023880;28;20218;-67
2022/04/15 09:34:00;;;;;;;5.07;4.45;;;;;;;;;;5022717;28;20201;-66
2022/04/15 09:36:31;;;;;;;6.35;3.95;;;;;;;;;;5026973;28;20228;-66
2022/04/15 09:38:58;;;;;;;4.90;4.38;;;;;;;;;;5025122;28;20269;-66
2022/04/15 09:41:26;;;;;;;6.47;4.38;;;;;;;;;;5018573;28;20194;-66
2022/04/15 09:43:53;;;;;;;7.13;4.13;;;;;;;;;;5019935;28;20289;-66
2022/04/15 09:46:19;;;;;;;6.65;4.13;;;;;;;;;;5025923;28;20182;-66
2022/04/15 09:49:04;;;;;;;5.40;4.22;;;;;;;;;;5023282;28;20182;-67
2022/04/15 09:51:37;;;;;;;6.22;3.67;;;;;;;;;;5023909;28;20189;-66
2022/04/15 09:54:04;;;;;;;4.63;3.70;;;;;;;;;;5025331;28;20261;-67
2022/04/15 09:56:34;;;;;;;6.78;3.80;;;;;;;;;;5026650;28;20178;-66
2022/04/15 09:59:04;;;;;;;5.05;3.60;;;;;;;;;;5023326;28;20218;-67
2022/04/15 10:01:32;;;;;;;4.78;3.95;;;;;;;;;;5023982;28;20206;-67
2022/04/15 10:03:58;;;;;;;5.55;3.85;;;;;;;;;;5023010;28;20194;-66
2022/04/15 10:06:42;;;;;;;5.21;4.07;;;;;;;;;;4904663;28;10001469;-66
2022/04/15 10:09:11;;;;;;;6.10;4.68;;;;;;;;;;5009421;28;20414;-66
2022/04/15 10:11:40;;;;;;;6.93;4.72;;;;;;;;;;5009656;28;20226;-66
2022/04/15 10:14:06;;;;;;;6.45;4.82;;;;;;;;;;5013026;28;20676;-66
2022/04/15 10:16:33;;;;;;;7.13;5.03;;;;;;;;;;5012715;28;20260;-66
2022/04/15 10:19:00;;;;;;;6.95;4.68;;;;;;;;;;5018883;28;20616;-66
2022/04/15 10:21:27;;;;;;;6.85;4.65;;;;;;;;;;5026653;28;20221;-67
2022/04/15 10:23:52;;;;;;;8.38;5.25;;;;;;;;;;5025320;28;20212;-67
2022/04/15 10:26:18;;;;;;;7.10;4.80;;;;;;;;;;5025858;28;20182;-66
2022/04/15 10:28:47;;;;;;;7.25;5.47;;;;;;;;;;5024130;28;20170;-67
2022/04/15 10:31:16;;;;;;;7.20;5.45;;;;;;;;;;5024771;28;20214;-66
2022/04/15 10:33:43;;;;;;;6.20;5.03;;;;;;;;;;5022950;28;20206;-67
2022/04/15 10:36:23;;;;;;;6.25;4.70;;;;;;;;;;5026191;28;20810;-66
2022/04/15 10:39:16;;;;;;;6.45;5.10;;;;;;;;;;5023674;28;20186;-67
2022/04/15 10:41:41;;;;;;;7.32;4.85;;;;;;;;;;5022766;28;20210;-67
2022/04/15 10:44:14;;;;;;;6.78;5.15;;;;;;;;;;5023615;28;20178;-67
2022/04/15 10:46:40;;;;;;;7.22;5.00;;;;;;;;;;5020052;28;20273;-67
2022/04/15 10:49:39;;;;;;;6.90;5.32;;;;;;;;;;5016232;28;20233;-67
2022/04/15 10:52:21;;;;;;;7.72;5.43;;;;;;;;;;5003537;28;20260;-67
2022/04/15 10:54:46;;;;;;;8.15;5.55;;;;;;;;;;5020246;28;20188;-67
2022/04/15 10:57:14;;;;;;;7.05;5.95;;;;;;;;;;5026757;28;20182;-68
2022/04/15 11:02:57;;;;;;;9.10;6.20;;;;;;;;;;5023586;28;20261;-68
2022/04/15 11:05:52;;;;;;;11.45;7.15;;;;;;;;;;5019308;28;20529;-68
2022/04/15 11:08:20;;;;;;;11.63;6.70;;;;;;;;;;5026041;28;20619;-68
2022/04/15 11:10:51;;;;;;;9.82;6.30;;;;;;;;;;5019785;28;20646;-67
2022/04/15 11:13:22;;;;;;;11.20;6.70;;;;;;;;;;5024432;28;20186;-67
2022/04/15 11:16:01;;;;;;;10.57;7.30;;;;;;;;;;5025606;28;20301;-67
2022/04/15 11:18:53;;;;;;;12.27;6.85;;;;;;;;;;5024015;28;20215;-67
2022/04/15 11:21:27;;;;;;;9.50;6.57;;;;;;;;;;5024548;28;20726;-68
2022/04/15 11:23:57;;;;;;;12.10;7.22;;;;;;;;;;5019950;28;20236;-67
2022/04/15 11:26:25;;;;;;;12.52;7.07;;;;;;;;;;5024967;28;20194;-67
2022/04/15 11:28:52;;;;;;;10.07;6.82;;;;;;;;;;5023398;28;20549;-67
2022/04/15 11:31:31;;;;;;;10.45;6.55;;;;;;;;;;5024542;28;20203;-67
2022/04/15 11:34:06;;;;;;;12.27;7.22;;;;;;;;;;5023138;28;20523;-68
2022/04/15 11:36:33;;;;;;;13.60;7.20;;;;;;;;;;5025421;28;20186;-67
2022/04/15 11:39:01;;;;;;;14.07;7.88;;;;;;;;;;5023050;28;20268;-68
2022/04/15 11:41:27;;;;;;;11.35;7.57;;;;;;;;;;5024311;28;20178;-67
2022/04/15 11:44:04;;;;;;;12.75;7.70;;;;;;;;;;5019962;28;20719;-67
2022/04/15 11:46:35;;;;;;;12.20;7.38;;;;;;;;;;5023849;28;20316;-67
2022/04/15 11:49:01;;;;;;;10.77;7.32;;;;;;;;;;5021792;28;20190;-67
2022/04/15 11:51:30;;;;;;;12.70;7.35;;;;;;;;;;5023946;28;20197;-67
2022/04/15 11:53:57;;;;;;;10.45;7.00;;;;;;;;;;5022843;28;20274;-67
2022/04/15 11:56:29;;;;;;;11.95;6.30;;;;;;;;;;5024811;28;20198;-67
2022/04/15 11:58:57;;;;;;;11.55;6.97;;;;;;;;;;5023664;28;20214;-67
2022/04/15 12:01:32;;;;;;;12.85;7.40;;;;;;;;;;5024666;28;20562;-67
2022/04/15 12:03:59;;;;;;;13.18;7.47;;;;;;;;;;5021565;28;20189;-66
2022/04/15 12:06:25;;;;;;;11.98;6.60;;;;;;;;;;5021342;28;20190;-67
2022/04/15 12:08:51;;;;;;;12.10;7.13;;;;;;;;;;5022294;28;20185;-66
2022/04/15 12:11:23;;;;;;;12.38;7.35;;;;;;;;;;5024612;28;20230;-66
2022/04/15 12:13:56;;;;;;;10.93;6.50;;;;;;;;;;5021319;28;20313;-67
2022/04/15 12:16:22;;;;;;;11.60;6.90;;;;;;;;;;5023381;28;20180;-66
2022/04/15 12:18:48;;;;;;;11.60;7.38;;;;;;;;;;5024247;28;20634;-67
2022/04/15 12:21:13;;;;;;;12.43;6.68;;;;;;;;;;5023311;28;20182;-67
2022/04/15 12:23:38;;;;;;;12.00;7.20;;;;;;;;;;5023907;28;20883;-67
2022/04/15 12:26:13;;;;;;;10.90;7.97;;;;;;;;;;5022191;28;20630;-66
2022/04/15 12:31:31;;;;;;;16.55;7.50;;;;;;;;;;5022786;28;20283;-66
2022/04/15 12:33:56;;;;;;;12.32;7.32;;;;;;;;;;5024309;28;20182;-66
2022/04/15 12:36:22;;;;;;;12.45;7.50;;;;;;;;;;5023299;28;20684;-66
2022/04/15 12:39:05;;;;;;;13.10;7.63;;;;;;;;;;5023467;28;20225;-67
2022/04/15 12:41:46;;;;;;;12.68;7.63;;;;;;;;;;5023614;28;20189;-67
2022/04/15 12:44:32;;;;;;;15.95;7.88;;;;;;;;;;5021446;28;20196;-67
2022/04/15 12:47:00;;;;;;;14.20;7.78;;;;;;;;;;5021826;28;20261;-67
2022/04/15 12:49:35;;;;;;;12.95;8.25;;;;;;;;;;5024408;28;20208;-68
2022/04/15 12:52:15;;;;;;;14.25;8.80;;;;;;;;;;5023302;28;20591;-68
2022/04/15 12:55:20;;;;;;;16.02;8.27;;;;;;;;;;5018580;28;20189;-67
2022/04/15 12:57:45;;;;;;;14.57;7.63;;;;;;;;;;5020854;28;20202;-66
2022/04/15 13:00:11;;;;;;;11.40;7.35;;;;;;;;;;5024657;28;20185;-66
2022/04/15 13:02:38;;;;;;;12.18;7.93;;;;;;;;;;5025959;28;20237;-66
2022/04/15 13:05:06;;;;;;;13.60;8.05;;;;;;;;;;5026281;28;20174;-67
2022/04/15 13:07:32;;;;;;;13.05;7.55;;;;;;;;;;5020258;28;20194;-67
2022/04/15 13:09:57;;;;;;;14.80;8.13;;;;;;;;;;5023772;28;20205;-67
2022/04/15 13:12:23;;;;;;;14.82;8.05;;;;;;;;;;5026143;28;20221;-67
2022/04/15 13:14:49;;;;;;;12.52;7.72;;;;;;;;;;5025476;28;20633;-67
2022/04/15 13:17:15;;;;;;;11.40;8.00;;;;;;;;;;5023934;28;20212;-68
2022/04/15 13:19:43;;;;;;;14.23;7.55;;;;;;;;;;5026108;28;20182;-67
2022/04/15 13:22:09;;;;;;;12.40;7.75;;;;;;;;;;5027417;28;20619;-67
2022/04/15 13:24:34;;;;;;;11.63;7.38;;;;;;;;;;5025720;28;20224;-67
2022/04/15 13:27:00;;;;;;;10.30;6.97;;;;;;;;;;5026715;28;20178;-67
2022/04/15 13:29:25;;;;;;;15.75;7.85;;;;;;;;;;5019145;28;20214;-67
2022/04/15 13:31:52;;;;;;;11.60;7.45;;;;;;;;;;5025033;28;20218;-67
2022/04/15 13:34:19;;;;;;;17.35;7.93;;;;;;;;;;5020378;28;20293;-68
2022/04/15 13:36:44;;;;;;;10.35;6.55;;;;;;;;;;5022370;28;20184;-67
2022/04/15 13:39:09;;;;;;;10.50;7.05;;;;;;;;;;5017442;28;20276;-67
2022/04/15 13:41:36;;;;;;;13.30;6.53;;;;;;;;;;5025891;28;20186;-67
2022/04/15 13:44:02;;;;;;;11.02;5.97;;;;;;;;;;5019738;28;20310;-67
2022/04/15 13:46:27;;;;;;;10.98;6.72;;;;;;;;;;5018729;28;20211;-66
2022/04/15 13:48:54;;;;;;;10.20;6.57;;;;;;;;;;5021603;28;20209;-66
2022/04/15 13:51:22;;;;;;;10.93;6.10;;;;;;;;;;5030386;28;20677;-67
2022/04/15 13:56:37;;;;;;;13.10;6.25;;;;;;;;;;5025406;28;20220;-67
2022/04/15 13:59:08;;;;;;;9.57;5.82;;;;;;;;;;5021522;28;20265;-67
2022/04/15 14:01:34;;;;;;;10.77;6.25;;;;;;;;;;5018547;28;20183;-66
2022/04/15 14:04:01;;;;;;;10.48;5.90;;;;;;;;;;5026685;28;20185;-67
2022/04/15 14:06:27;;;;;;;10.02;5.75;;;;;;;;;;5030712;28;20185;-67
2022/04/15 14:08:53;;;;;;;9.75;6.28;;;;;;;;;;5029074;28;20629;-67
2022/04/15 14:11:20;;;;;;;12.45;5.93;;;;;;;;;;5030488;28;20241;-66
2022/04/15 14:13:45;;;;;;;12.10;5.75;;;;;;;;;;5020926;28;20174;-67
2022/04/15 14:16:12;;;;;;;10.75;5.63;;;;;;;;;;5028957;28;20184;-67
2022/04/15 14:18:38;;;;;;;9.18;5.68;;;;;;;;;;5027115;28;20193;-68
2022/04/15 14:21:04;;;;;;;9.45;5.50;;;;;;;;;;5031008;28;20214;-68
2022/04/15 14:23:31;;;;;;;11.20;5.18;;;;;;;;;;5031148;28;20213;-67
2022/04/15 14:25:56;;;;;;;7.10;5.03;;;;;;;;;;5026782;28;20231;-67
2022/04/15 14:28:22;;;;;;;7.18;5.65;;;;;;;;;;5025724;28;20182;-67
2022/04/15 14:30:47;;;;;;;9.15;4.80;;;;;;;;;;5015800;28;20330;-68
2022/04/15 14:33:12;;;;;;;9.00;5.45;;;;;;;;;;5029354;28;20226;-68
2022/04/15 14:35:41;;;;;;;12.32;5.80;;;;;;;;;;5024984;28;20194;-67
2022/04/15 14:38:08;;;;;;;12.57;5.78;;;;;;;;;;5024098;28;20198;-67